Time;durP1;ratioP1;P1;durP2;ratioP2;P2;SDS_P1;SDS_P2;PMS_P1;PMS_P2;Temp;Humidity;BMP_temperature;BMP_pressure;BME280_temperature;BME280_humidity;BME280_pressure;Samples;Min_cycle;Max_cycle;Signal;HPM_P1;HPM_P2
2023/12/03 00:01:35;;;;;;;37.40;21.87;;;;;;;;;;4977954;28;20809;-84
2023/12/03 00:04:02;;;;;;;37.67;22.60;;;;;;;;;;4977797;28;20524;-83
2023/12/03 00:06:30;;;;;;;38.53;22.27;;;;;;;;;;4978456;28;20464;-83
2023/12/03 00:08:58;;;;;;;39.00;22.63;;;;;;;;;;4977786;28;20496;-83
2023/12/03 00:11:24;;;;;;;44.17;22.20;;;;;;;;;;4978562;28;20519;-83
2023/12/03 00:13:51;;;;;;;34.80;21.23;;;;;;;;;;4978180;28;20525;-81
2023/12/03 00:16:17;;;;;;;37.87;22.30;;;;;;;;;;4978477;28;20543;-83
2023/12/03 00:18:43;;;;;;;41.30;20.63;;;;;;;;;;4975948;28;20543;-83
2023/12/03 00:21:10;;;;;;;34.57;21.50;;;;;;;;;;4977413;28;20464;-83
2023/12/03 00:23:38;;;;;;;40.60;21.90;;;;;;;;;;4976355;28;20485;-83
2023/12/03 00:26:04;;;;;;;44.57;21.80;;;;;;;;;;4979735;28;20503;-83
2023/12/03 00:28:31;;;;;;;34.77;21.37;;;;;;;;;;4982270;28;20456;-83
2023/12/03 00:30:57;;;;;;;39.33;22.67;;;;;;;;;;4980953;28;20567;-83
2023/12/03 00:33:23;;;;;;;37.07;22.70;;;;;;;;;;4981416;28;20487;-82
2023/12/03 00:35:50;;;;;;;35.63;22.80;;;;;;;;;;4981230;28;20479;-82
2023/12/03 00:38:16;;;;;;;40.37;22.80;;;;;;;;;;4981745;28;20527;-82
2023/12/03 00:40:44;;;;;;;35.50;21.47;;;;;;;;;;4981316;28;20500;-83
2023/12/03 00:43:10;;;;;;;41.60;22.63;;;;;;;;;;4980091;28;20509;-83
2023/12/03 00:45:37;;;;;;;42.30;23.73;;;;;;;;;;4979872;28;20497;-82
2023/12/03 00:48:03;;;;;;;38.57;24.00;;;;;;;;;;4979779;28;20516;-82
2023/12/03 00:50:30;;;;;;;44.73;23.20;;;;;;;;;;4981211;28;20484;-83
2023/12/03 00:52:56;;;;;;;46.47;26.23;;;;;;;;;;4981598;28;20484;-83
2023/12/03 00:55:23;;;;;;;43.50;23.00;;;;;;;;;;4980077;28;20496;-82
2023/12/03 00:57:50;;;;;;;45.77;24.87;;;;;;;;;;4977573;28;21610;-82
2023/12/03 01:00:17;;;;;;;48.60;25.37;;;;;;;;;;4978103;28;20555;-82
2023/12/03 01:02:44;;;;;;;46.40;23.77;;;;;;;;;;4980894;28;20523;-82
2023/12/03 01:05:10;;;;;;;41.37;22.60;;;;;;;;;;4980609;28;20488;-82
2023/12/03 01:07:36;;;;;;;41.00;21.87;;;;;;;;;;4978576;28;20491;-82
2023/12/03 01:10:03;;;;;;;47.03;23.47;;;;;;;;;;4980151;28;20586;-82
2023/12/03 01:12:30;;;;;;;44.77;24.40;;;;;;;;;;4978847;28;20524;-82
2023/12/03 01:14:57;;;;;;;45.63;25.10;;;;;;;;;;4978035;28;20556;-82
2023/12/03 01:17:24;;;;;;;44.90;25.17;;;;;;;;;;4979896;28;20472;-82
2023/12/03 01:19:50;;;;;;;45.27;25.33;;;;;;;;;;4980045;28;20905;-82
2023/12/03 01:22:17;;;;;;;50.40;27.50;;;;;;;;;;4980042;28;20499;-83
2023/12/03 01:24:43;;;;;;;49.47;25.20;;;;;;;;;;4980787;28;20461;-83
2023/12/03 01:27:09;;;;;;;52.13;25.03;;;;;;;;;;4980229;28;20480;-83
2023/12/03 01:29:35;;;;;;;45.27;25.30;;;;;;;;;;4977772;28;20568;-82
2023/12/03 01:32:03;;;;;;;49.13;25.03;;;;;;;;;;4980841;28;20480;-83
2023/12/03 01:34:29;;;;;;;48.50;26.87;;;;;;;;;;4977651;28;20272;-83
2023/12/03 01:36:55;;;;;;;51.43;26.07;;;;;;;;;;4980422;28;20503;-82
2023/12/03 01:39:22;;;;;;;51.23;27.00;;;;;;;;;;4979820;28;20492;-83
2023/12/03 01:41:48;;;;;;;52.67;28.30;;;;;;;;;;4979726;28;20599;-84
2023/12/03 01:44:14;;;;;;;53.23;26.00;;;;;;;;;;4976878;28;20480;-84
2023/12/03 01:46:41;;;;;;;56.43;28.87;;;;;;;;;;4977064;28;20551;-84
2023/12/03 01:49:09;;;;;;;52.77;27.93;;;;;;;;;;4979578;28;20472;-83
2023/12/03 01:51:36;;;;;;;55.73;28.70;;;;;;;;;;4979548;28;20503;-83
2023/12/03 01:54:03;;;;;;;54.20;28.60;;;;;;;;;;4977273;28;21126;-83
2023/12/03 01:56:29;;;;;;;49.50;28.33;;;;;;;;;;4980361;28;20941;-83
2023/12/03 01:58:55;;;;;;;51.80;28.00;;;;;;;;;;4979451;28;20524;-82
2023/12/03 02:01:22;;;;;;;57.93;29.97;;;;;;;;;;4980435;28;20476;-82
2023/12/03 02:03:48;;;;;;;48.57;27.97;;;;;;;;;;4978332;28;20535;-82
2023/12/03 02:06:16;;;;;;;52.80;28.17;;;;;;;;;;4978416;28;20560;-82
2023/12/03 02:08:43;;;;;;;54.20;27.63;;;;;;;;;;4979896;28;20542;-82
2023/12/03 02:11:09;;;;;;;51.40;25.33;;;;;;;;;;4980002;28;20614;-82
2023/12/03 02:13:37;;;;;;;55.00;27.03;;;;;;;;;;4980485;28;20483;-82
2023/12/03 02:16:03;;;;;;;49.03;27.30;;;;;;;;;;4979588;28;20523;-82
2023/12/03 02:18:30;;;;;;;51.20;25.70;;;;;;;;;;4979905;28;20507;-83
2023/12/03 02:20:57;;;;;;;57.43;29.40;;;;;;;;;;4978409;28;20461;-83
2023/12/03 02:23:27;;;;;;;58.83;30.80;;;;;;;;;;4977262;28;20531;-83
2023/12/03 02:25:54;;;;;;;49.00;24.77;;;;;;;;;;4975527;28;20480;-83
2023/12/03 02:28:20;;;;;;;53.00;27.67;;;;;;;;;;4976601;28;20517;-83
2023/12/03 02:30:47;;;;;;;58.50;28.97;;;;;;;;;;4980429;28;20571;-83
2023/12/03 02:33:13;;;;;;;44.63;26.43;;;;;;;;;;4981465;28;20531;-83
2023/12/03 02:35:39;;;;;;;45.63;26.50;;;;;;;;;;4982553;28;20583;-83
2023/12/03 02:38:06;;;;;;;50.80;26.80;;;;;;;;;;4982997;28;20791;-83
2023/12/03 02:40:34;;;;;;;48.00;26.90;;;;;;;;;;4977753;28;20491;-83
2023/12/03 02:43:00;;;;;;;50.97;28.40;;;;;;;;;;4981879;28;20512;-83
2023/12/03 02:45:27;;;;;;;54.30;28.73;;;;;;;;;;4983269;28;20548;-82
2023/12/03 02:47:53;;;;;;;45.37;25.07;;;;;;;;;;4983582;28;20519;-83
2023/12/03 02:50:19;;;;;;;51.03;28.30;;;;;;;;;;4981904;28;20588;-82
2023/12/03 02:52:46;;;;;;;41.70;24.97;;;;;;;;;;4983923;28;20444;-83
2023/12/03 02:55:12;;;;;;;45.60;25.73;;;;;;;;;;4983603;28;20921;-83
2023/12/03 02:57:40;;;;;;;42.53;22.40;;;;;;;;;;4978345;28;20520;-83
2023/12/03 03:00:07;;;;;;;43.97;25.20;;;;;;;;;;4978337;28;20554;-87
2023/12/03 03:02:34;;;;;;;46.67;25.00;;;;;;;;;;4980836;28;20471;-86
2023/12/03 03:05:00;;;;;;;45.33;24.40;;;;;;;;;;4979918;28;20508;-86
2023/12/03 03:07:27;;;;;;;52.90;26.30;;;;;;;;;;4983532;28;20475;-86
2023/12/03 03:09:54;;;;;;;55.17;25.70;;;;;;;;;;4976529;28;20469;-85
2023/12/03 03:12:20;;;;;;;43.10;23.30;;;;;;;;;;4982700;28;20535;-87
2023/12/03 03:14:48;;;;;;;45.10;25.30;;;;;;;;;;4981012;28;20548;-87
2023/12/03 03:17:14;;;;;;;46.57;23.17;;;;;;;;;;4983464;28;21154;-87
2023/12/03 03:19:42;;;;;;;48.00;26.17;;;;;;;;;;4983149;28;20838;-86
2023/12/03 03:22:11;;;;;;;56.80;27.10;;;;;;;;;;4983124;28;21057;-86
2023/12/03 03:24:37;;;;;;;54.97;27.03;;;;;;;;;;4982744;28;20491;-87
2023/12/03 03:27:04;;;;;;;46.90;24.70;;;;;;;;;;4980063;28;20485;-87
2023/12/03 03:29:30;;;;;;;52.00;25.27;;;;;;;;;;4982899;28;20504;-88
2023/12/03 03:31:58;;;;;;;51.30;26.67;;;;;;;;;;4978680;28;20617;-86
2023/12/03 03:34:24;;;;;;;53.70;25.37;;;;;;;;;;4981532;28;20491;-87
2023/12/03 03:36:50;;;;;;;52.67;26.97;;;;;;;;;;4982933;28;20468;-86
2023/12/03 03:39:17;;;;;;;41.30;24.03;;;;;;;;;;4982082;28;20523;-87
2023/12/03 03:41:45;;;;;;;42.57;25.10;;;;;;;;;;4982679;28;20547;-88
2023/12/03 03:44:11;;;;;;;53.83;25.10;;;;;;;;;;4972589;28;20515;-87
2023/12/03 03:46:38;;;;;;;47.83;24.87;;;;;;;;;;4982567;28;20491;-87
2023/12/03 03:49:06;;;;;;;50.53;25.90;;;;;;;;;;4982006;28;20491;-87
2023/12/03 03:51:32;;;;;;;48.53;24.90;;;;;;;;;;4982510;28;20488;-87
2023/12/03 03:53:58;;;;;;;40.43;23.03;;;;;;;;;;4982822;28;21017;-87
2023/12/03 03:56:25;;;;;;;47.83;25.83;;;;;;;;;;4982961;28;20495;-87
2023/12/03 03:58:51;;;;;;;48.07;26.60;;;;;;;;;;4982573;28;20575;-87
2023/12/03 04:01:17;;;;;;;60.57;25.90;;;;;;;;;;4983242;28;20456;-87
2023/12/03 04:03:44;;;;;;;52.67;26.90;;;;;;;;;;4978939;28;20479;-87
2023/12/03 04:06:12;;;;;;;50.60;25.93;;;;;;;;;;4981273;28;20499;-88
2023/12/03 04:08:39;;;;;;;50.87;25.83;;;;;;;;;;4981846;28;20468;-87
2023/12/03 04:11:06;;;;;;;50.83;25.50;;;;;;;;;;4979634;28;21438;-87
2023/12/03 04:13:32;;;;;;;50.50;23.63;;;;;;;;;;4976824;28;20476;-87
2023/12/03 04:15:59;;;;;;;51.57;26.67;;;;;;;;;;4980991;28;20565;-87
2023/12/03 04:18:26;;;;;;;54.23;26.87;;;;;;;;;;4981825;28;20580;-87
2023/12/03 04:20:52;;;;;;;49.20;26.20;;;;;;;;;;4980904;28;21000;-87
2023/12/03 04:23:20;;;;;;;47.00;24.07;;;;;;;;;;4982505;28;20433;-87
2023/12/03 04:25:46;;;;;;;43.97;23.50;;;;;;;;;;4981622;28;20867;-88
2023/12/03 04:28:13;;;;;;;50.70;25.70;;;;;;;;;;4981027;28;20499;-87
2023/12/03 04:30:39;;;;;;;56.07;26.73;;;;;;;;;;4982331;28;20576;-88
2023/12/03 04:33:05;;;;;;;51.53;25.73;;;;;;;;;;4982012;28;20487;-88
2023/12/03 04:35:32;;;;;;;46.53;26.47;;;;;;;;;;4978062;28;21131;-87
2023/12/03 04:37:58;;;;;;;53.20;25.67;;;;;;;;;;4980751;28;20481;-87
2023/12/03 04:40:26;;;;;;;48.10;26.30;;;;;;;;;;4981091;28;20507;-86
2023/12/03 04:42:53;;;;;;;51.43;26.70;;;;;;;;;;4981768;28;20492;-84
2023/12/03 04:45:19;;;;;;;52.83;25.07;;;;;;;;;;4981214;28;20456;-83
2023/12/03 04:47:45;;;;;;;53.40;26.47;;;;;;;;;;4982130;28;20448;-85
2023/12/03 04:50:12;;;;;;;54.53;26.40;;;;;;;;;;4978556;28;21254;-84
2023/12/03 04:52:38;;;;;;;56.73;28.03;;;;;;;;;;4981272;28;20567;-84
2023/12/03 04:55:05;;;;;;;53.40;27.60;;;;;;;;;;4979449;28;20480;-84
2023/12/03 04:57:33;;;;;;;54.00;26.90;;;;;;;;;;4983049;28;20484;-84
2023/12/03 04:59:59;;;;;;;55.03;26.70;;;;;;;;;;4981450;28;20468;-85
2023/12/03 05:02:26;;;;;;;60.60;28.13;;;;;;;;;;4986905;28;20491;-85
2023/12/03 05:04:52;;;;;;;60.50;28.93;;;;;;;;;;4981182;28;20463;-84
2023/12/03 05:07:18;;;;;;;56.10;26.63;;;;;;;;;;4978959;28;20480;-84
2023/12/03 05:09:45;;;;;;;54.87;25.00;;;;;;;;;;4981220;28;20547;-84
2023/12/03 05:12:11;;;;;;;55.70;27.30;;;;;;;;;;4979337;28;20512;-84
2023/12/03 05:14:39;;;;;;;52.70;27.63;;;;;;;;;;4978605;28;20496;-85
2023/12/03 05:17:05;;;;;;;62.83;27.57;;;;;;;;;;4981516;28;20886;-85
2023/12/03 05:19:32;;;;;;;61.70;27.60;;;;;;;;;;4980719;28;20535;-83
2023/12/03 05:21:58;;;;;;;53.13;28.23;;;;;;;;;;4979188;28;20511;-84
2023/12/03 05:24:25;;;;;;;58.07;27.00;;;;;;;;;;4977110;28;20460;-83
2023/12/03 05:26:51;;;;;;;63.17;29.40;;;;;;;;;;4975809;28;20890;-84
2023/12/03 05:29:18;;;;;;;56.87;27.23;;;;;;;;;;4981079;28;20471;-83
2023/12/03 05:31:46;;;;;;;48.17;26.13;;;;;;;;;;4981234;28;20490;-84
2023/12/03 05:34:13;;;;;;;54.40;27.10;;;;;;;;;;4980122;28;20456;-83
2023/12/03 05:36:39;;;;;;;55.13;28.83;;;;;;;;;;4980194;28;20586;-83
2023/12/03 05:39:06;;;;;;;58.00;29.90;;;;;;;;;;4980833;28;20472;-83
2023/12/03 05:41:38;;;;;;;64.93;29.07;;;;;;;;;;4971864;28;20573;-83
2023/12/03 05:44:04;;;;;;;57.93;28.07;;;;;;;;;;4980327;28;20488;-86
2023/12/03 05:46:31;;;;;;;63.40;29.47;;;;;;;;;;4980881;28;20464;-86
2023/12/03 05:48:58;;;;;;;55.33;28.10;;;;;;;;;;4980359;28;20495;-86
2023/12/03 05:51:25;;;;;;;60.60;28.00;;;;;;;;;;4973062;28;20515;-83
2023/12/03 05:53:51;;;;;;;55.07;28.70;;;;;;;;;;4980726;28;20536;-84
2023/12/03 05:56:18;;;;;;;58.20;28.87;;;;;;;;;;4980597;28;20555;-84
2023/12/03 05:58:44;;;;;;;56.77;28.20;;;;;;;;;;4978348;28;21393;-84
2023/12/03 06:01:10;;;;;;;55.23;28.20;;;;;;;;;;4979951;28;20524;-85
2023/12/03 06:03:37;;;;;;;52.87;28.23;;;;;;;;;;4980407;28;20460;-83
2023/12/03 06:06:05;;;;;;;61.80;26.97;;;;;;;;;;4977268;28;20536;-83
2023/12/03 06:08:31;;;;;;;49.17;26.23;;;;;;;;;;4980150;28;20448;-83
2023/12/03 06:10:58;;;;;;;62.83;31.23;;;;;;;;;;4980679;28;20551;-83
2023/12/03 06:13:24;;;;;;;64.60;30.27;;;;;;;;;;4980207;28;20527;-83
2023/12/03 06:15:50;;;;;;;56.93;29.70;;;;;;;;;;4980412;28;20530;-83
2023/12/03 06:18:17;;;;;;;54.50;28.07;;;;;;;;;;4979592;28;20535;-84
2023/12/03 06:20:43;;;;;;;63.63;28.37;;;;;;;;;;4978964;28;20979;-85
2023/12/03 06:23:12;;;;;;;55.67;27.37;;;;;;;;;;4979868;28;20504;-86
2023/12/03 06:25:38;;;;;;;54.93;28.20;;;;;;;;;;4970954;28;20488;-84
2023/12/03 06:28:04;;;;;;;53.67;27.93;;;;;;;;;;4972574;28;20468;-85
2023/12/03 06:30:31;;;;;;;50.57;26.03;;;;;;;;;;4974358;28;20544;-84
2023/12/03 06:32:57;;;;;;;51.53;25.00;;;;;;;;;;4975565;28;21075;-86
2023/12/03 06:35:24;;;;;;;49.83;24.30;;;;;;;;;;4976411;28;20484;-85
2023/12/03 06:37:50;;;;;;;43.30;23.50;;;;;;;;;;4975992;28;20445;-85
2023/12/03 06:40:18;;;;;;;42.37;22.83;;;;;;;;;;4975216;28;20644;-85
2023/12/03 06:42:45;;;;;;;40.57;21.83;;;;;;;;;;4979327;28;20445;-84
2023/12/03 06:45:12;;;;;;;47.70;22.03;;;;;;;;;;4977520;28;21283;-84
2023/12/03 06:47:38;;;;;;;40.17;20.60;;;;;;;;;;4975107;28;21045;-82
2023/12/03 06:50:05;;;;;;;35.80;17.83;;;;;;;;;;4980248;28;20487;-84
2023/12/03 06:52:32;;;;;;;34.40;17.47;;;;;;;;;;4979325;28;20523;-84
2023/12/03 06:54:58;;;;;;;34.47;17.30;;;;;;;;;;4979707;28;20969;-83
2023/12/03 06:57:26;;;;;;;39.03;18.33;;;;;;;;;;4980256;28;20506;-88
2023/12/03 06:59:53;;;;;;;34.90;16.60;;;;;;;;;;4978649;28;20460;-89
2023/12/03 07:02:19;;;;;;;29.70;17.40;;;;;;;;;;4978641;28;20457;-89
2023/12/03 07:04:46;;;;;;;36.07;18.33;;;;;;;;;;4970665;28;20529;-89
2023/12/03 07:07:12;;;;;;;33.90;14.93;;;;;;;;;;4979564;28;20523;-88
2023/12/03 07:09:38;;;;;;;34.80;17.07;;;;;;;;;;4979778;28;20552;-89
2023/12/03 07:12:05;;;;;;;30.57;16.23;;;;;;;;;;4981312;28;20751;-87
2023/12/03 07:14:33;;;;;;;34.30;17.27;;;;;;;;;;4969789;28;20516;-88
2023/12/03 07:17:00;;;;;;;34.40;16.70;;;;;;;;;;4974549;28;20466;-87
2023/12/03 07:19:26;;;;;;;39.80;19.40;;;;;;;;;;4981335;28;20527;-86
2023/12/03 07:21:53;;;;;;;32.87;15.83;;;;;;;;;;4982837;28;20502;-88
2023/12/03 07:24:19;;;;;;;33.27;17.03;;;;;;;;;;4983507;28;20575;-86
2023/12/03 07:26:45;;;;;;;37.73;18.37;;;;;;;;;;4982927;28;20491;-87
2023/12/03 07:29:12;;;;;;;32.37;17.30;;;;;;;;;;4982913;28;20464;-87
2023/12/03 07:31:40;;;;;;;33.60;17.13;;;;;;;;;;4982696;28;20488;-87
2023/12/03 07:34:06;;;;;;;36.87;18.10;;;;;;;;;;4983046;28;20479;-87
2023/12/03 07:36:32;;;;;;;34.47;16.20;;;;;;;;;;4979589;28;20928;-87
2023/12/03 07:38:59;;;;;;;38.50;17.57;;;;;;;;;;4978127;28;20724;-87
2023/12/03 07:41:28;;;;;;;37.57;18.57;;;;;;;;;;4981522;28;20511;-85
2023/12/03 07:43:54;;;;;;;38.83;17.37;;;;;;;;;;4979293;28;20452;-84
2023/12/03 07:46:20;;;;;;;40.60;17.20;;;;;;;;;;4983392;28;20491;-88
2023/12/03 07:48:48;;;;;;;34.10;18.00;;;;;;;;;;4982852;28;20492;-88
2023/12/03 07:51:15;;;;;;;35.90;18.80;;;;;;;;;;4979554;28;20532;-85
2023/12/03 07:53:41;;;;;;;30.70;17.40;;;;;;;;;;4980704;28;20580;-88
2023/12/03 07:56:08;;;;;;;38.70;19.27;;;;;;;;;;4977412;28;20481;-89
2023/12/03 07:58:35;;;;;;;37.87;18.67;;;;;;;;;;4982433;28;20488;-87
2023/12/03 08:01:03;;;;;;;40.57;20.07;;;;;;;;;;4978657;28;20457;-89
2023/12/03 08:03:29;;;;;;;36.50;18.70;;;;;;;;;;4978645;28;20456;-83
2023/12/03 08:05:58;;;;;;;34.97;17.87;;;;;;;;;;4980698;28;20456;-82
2023/12/03 08:08:25;;;;;;;45.00;18.47;;;;;;;;;;4981203;28;20452;-83
2023/12/03 08:10:52;;;;;;;37.67;17.17;;;;;;;;;;4973910;28;20472;-84
2023/12/03 08:13:18;;;;;;;34.93;18.80;;;;;;;;;;4979156;28;21247;-88
2023/12/03 08:15:45;;;;;;;35.27;18.47;;;;;;;;;;4982351;28;20461;-83
2023/12/03 08:18:11;;;;;;;40.10;19.43;;;;;;;;;;4972982;28;20528;-82
2023/12/03 08:20:37;;;;;;;48.67;19.40;;;;;;;;;;4975236;28;20559;-82
2023/12/03 08:23:05;;;;;;;40.77;18.80;;;;;;;;;;4973216;28;20486;-85
2023/12/03 08:25:32;;;;;;;33.80;17.73;;;;;;;;;;4973798;28;20488;-82
2023/12/03 08:27:58;;;;;;;36.60;17.40;;;;;;;;;;4973659;28;20452;-81
2023/12/03 08:30:25;;;;;;;35.13;17.60;;;;;;;;;;4974470;28;20504;-81
2023/12/03 08:32:51;;;;;;;36.23;17.37;;;;;;;;;;4976446;28;20946;-82
2023/12/03 08:35:18;;;;;;;39.20;18.27;;;;;;;;;;4977657;28;20468;-82
2023/12/03 08:37:45;;;;;;;40.90;18.30;;;;;;;;;;4975026;28;20586;-83
2023/12/03 08:40:14;;;;;;;36.00;18.10;;;;;;;;;;4973510;28;20464;-83
2023/12/03 08:42:41;;;;;;;37.47;17.47;;;;;;;;;;4974364;28;20461;-83
2023/12/03 08:45:08;;;;;;;34.43;18.07;;;;;;;;;;4974166;28;20504;-82
2023/12/03 08:47:34;;;;;;;34.00;17.60;;;;;;;;;;4971782;28;20459;-82
2023/12/03 08:50:01;;;;;;;42.70;19.47;;;;;;;;;;4975023;28;20464;-82
2023/12/03 08:52:27;;;;;;;34.60;16.87;;;;;;;;;;4976316;28;20555;-82
2023/12/03 08:54:54;;;;;;;36.77;17.07;;;;;;;;;;4975440;28;20487;-82
2023/12/03 08:57:21;;;;;;;34.80;18.83;;;;;;;;;;4977230;28;20480;-82
2023/12/03 08:59:49;;;;;;;40.30;19.00;;;;;;;;;;4976776;28;20493;-82
2023/12/03 09:02:16;;;;;;;39.40;18.53;;;;;;;;;;4968994;28;20880;-82
2023/12/03 09:04:42;;;;;;;37.87;18.50;;;;;;;;;;4976325;28;20464;-82
2023/12/03 09:07:09;;;;;;;35.90;18.20;;;;;;;;;;4976481;28;20948;-82
2023/12/03 09:09:35;;;;;;;37.60;16.80;;;;;;;;;;4978362;28;20496;-82
2023/12/03 09:12:02;;;;;;;47.57;19.93;;;;;;;;;;4977647;28;20450;-82
2023/12/03 09:14:29;;;;;;;37.70;17.90;;;;;;;;;;4978651;28;20471;-83
2023/12/03 09:16:57;;;;;;;38.43;16.27;;;;;;;;;;4977820;28;20543;-82
2023/12/03 09:19:24;;;;;;;34.87;17.43;;;;;;;;;;4977867;28;21299;-83
2023/12/03 09:21:50;;;;;;;39.60;18.10;;;;;;;;;;4976988;28;20464;-83
2023/12/03 09:24:17;;;;;;;38.90;18.23;;;;;;;;;;4975390;28;20524;-82
2023/12/03 09:26:45;;;;;;;39.87;18.87;;;;;;;;;;4977237;28;20464;-82
2023/12/03 09:29:12;;;;;;;46.80;19.70;;;;;;;;;;4974453;28;20462;-83
2023/12/03 09:31:40;;;;;;;48.90;20.97;;;;;;;;;;4974818;28;20476;-83
2023/12/03 09:34:06;;;;;;;50.63;22.60;;;;;;;;;;4975890;28;20836;-82
2023/12/03 09:36:33;;;;;;;63.70;24.30;;;;;;;;;;4974809;28;20967;-83
2023/12/03 09:39:00;;;;;;;47.83;20.87;;;;;;;;;;4977715;28;20488;-83
2023/12/03 09:41:33;;;;;;;62.17;22.67;;;;;;;;;;4975703;28;20524;-83
2023/12/03 09:44:00;;;;;;;51.93;23.27;;;;;;;;;;4973597;28;20503;-82
2023/12/03 09:46:30;;;;;;;58.40;22.60;;;;;;;;;;4974718;28;20457;-82
2023/12/03 09:49:01;;;;;;;55.00;24.00;;;;;;;;;;4975530;28;20476;-83
2023/12/03 09:51:28;;;;;;;68.23;24.10;;;;;;;;;;4979252;28;20464;-82
2023/12/03 09:53:56;;;;;;;68.77;27.50;;;;;;;;;;4978324;28;20572;-83
2023/12/03 09:56:24;;;;;;;56.23;25.30;;;;;;;;;;4978950;28;20489;-83
2023/12/03 09:58:51;;;;;;;63.20;27.37;;;;;;;;;;4978595;28;20480;-83
2023/12/03 10:01:18;;;;;;;74.93;27.37;;;;;;;;;;4975467;28;20485;-83
2023/12/03 10:03:44;;;;;;;66.00;29.40;;;;;;;;;;4974056;28;20481;-84
2023/12/03 10:06:12;;;;;;;63.00;30.20;;;;;;;;;;4979084;28;20455;-83
2023/12/03 10:08:41;;;;;;;57.00;29.77;;;;;;;;;;4992085;28;20464;-82
2023/12/03 10:11:08;;;;;;;58.67;27.50;;;;;;;;;;4982776;28;20484;-84
2023/12/03 10:13:36;;;;;;;56.23;28.70;;;;;;;;;;4985343;28;20555;-83
2023/12/03 10:16:03;;;;;;;57.47;29.40;;;;;;;;;;4986808;28;20471;-83
2023/12/03 10:18:29;;;;;;;64.67;31.70;;;;;;;;;;4989316;28;20463;-82
2023/12/03 10:21:05;;;;;;;57.97;28.60;;;;;;;;;;4981626;28;20480;-83
2023/12/03 10:23:39;;;;;;;60.00;28.83;;;;;;;;;;4986031;28;20496;-83
2023/12/03 10:26:12;;;;;;;60.50;28.90;;;;;;;;;;4982311;28;20456;-84
2023/12/03 10:28:40;;;;;;;54.07;28.60;;;;;;;;;;4983865;28;20491;-82
2023/12/03 10:31:11;;;;;;;52.80;29.03;;;;;;;;;;4980207;28;20472;-83
2023/12/03 10:33:38;;;;;;;58.87;28.90;;;;;;;;;;4982337;28;20572;-84
2023/12/03 10:36:08;;;;;;;55.80;27.87;;;;;;;;;;4982384;28;20456;-84
2023/12/03 10:38:37;;;;;;;64.27;30.03;;;;;;;;;;4984217;28;20460;-83
2023/12/03 10:41:06;;;;;;;61.07;29.13;;;;;;;;;;4978067;28;20480;-83
2023/12/03 10:43:34;;;;;;;54.97;27.10;;;;;;;;;;4980935;28;20487;-84
2023/12/03 10:46:00;;;;;;;62.70;29.80;;;;;;;;;;4981738;28;20460;-84
2023/12/03 10:48:30;;;;;;;59.77;29.50;;;;;;;;;;4982983;28;20491;-82
2023/12/03 10:51:00;;;;;;;55.07;27.27;;;;;;;;;;4981532;28;20461;-84
2023/12/03 10:53:27;;;;;;;57.27;29.80;;;;;;;;;;4978143;28;20484;-83
2023/12/03 10:55:55;;;;;;;60.40;31.97;;;;;;;;;;4985984;28;20490;-84
2023/12/03 10:58:22;;;;;;;62.23;31.90;;;;;;;;;;4985114;28;20471;-83
2023/12/03 11:00:51;;;;;;;54.70;28.60;;;;;;;;;;4978298;28;20511;-82
2023/12/03 11:03:23;;;;;;;45.00;27.87;;;;;;;;;;4979692;28;20464;-83
2023/12/03 11:05:52;;;;;;;60.37;27.50;;;;;;;;;;4980501;28;20468;-83
2023/12/03 11:08:19;;;;;;;47.20;25.03;;;;;;;;;;4983342;28;20471;-84
2023/12/03 11:10:46;;;;;;;51.20;26.33;;;;;;;;;;4985771;28;20468;-84
2023/12/03 11:13:14;;;;;;;50.40;26.80;;;;;;;;;;4982860;28;20510;-82
2023/12/03 11:15:40;;;;;;;46.97;27.43;;;;;;;;;;4985129;28;20472;-82
2023/12/03 11:18:08;;;;;;;43.77;28.00;;;;;;;;;;4987087;28;20448;-82
2023/12/03 11:20:36;;;;;;;47.40;29.23;;;;;;;;;;4983084;28;20599;-82
2023/12/03 11:23:20;;;;;;;47.00;29.10;;;;;;;;;;4982174;28;20504;-84
2023/12/03 11:25:55;;;;;;;41.83;26.87;;;;;;;;;;4987416;28;20546;-84
2023/12/03 11:28:23;;;;;;;36.50;25.43;;;;;;;;;;4986606;28;20470;-84
2023/12/03 11:30:51;;;;;;;38.50;25.70;;;;;;;;;;4985184;28;20467;-88
2023/12/03 11:33:20;;;;;;;42.70;28.50;;;;;;;;;;4983842;28;20484;-85
2023/12/03 11:35:48;;;;;;;46.47;26.83;;;;;;;;;;4978833;28;20535;-82
2023/12/03 11:38:16;;;;;;;41.93;26.83;;;;;;;;;;4984052;28;20465;-86
2023/12/03 11:40:42;;;;;;;35.53;24.87;;;;;;;;;;4984601;28;20483;-86
2023/12/03 11:43:22;;;;;;;35.60;25.13;;;;;;;;;;4986625;28;20515;-87
2023/12/03 11:45:51;;;;;;;39.10;23.83;;;;;;;;;;4983174;28;20460;-86
2023/12/03 11:48:17;;;;;;;34.80;21.93;;;;;;;;;;4987185;28;20444;-84
2023/12/03 11:50:45;;;;;;;39.10;23.03;;;;;;;;;;4981151;28;20481;-83
2023/12/03 11:53:13;;;;;;;41.07;25.17;;;;;;;;;;4987199;28;20495;-87
2023/12/03 11:55:41;;;;;;;42.13;25.57;;;;;;;;;;4982242;28;20516;-87
2023/12/03 11:58:08;;;;;;;46.20;26.60;;;;;;;;;;4983597;28;20457;-82
2023/12/03 12:00:35;;;;;;;35.13;24.73;;;;;;;;;;4987175;28;20486;-88
2023/12/03 12:03:05;;;;;;;42.30;27.67;;;;;;;;;;4988292;28;20495;-88
2023/12/03 12:05:31;;;;;;;37.37;25.80;;;;;;;;;;4979935;28;20468;-88
2023/12/03 12:07:58;;;;;;;43.37;27.40;;;;;;;;;;4983757;28;20486;-87
2023/12/03 12:10:25;;;;;;;39.50;24.30;;;;;;;;;;4985999;28;20448;-88
2023/12/03 12:12:51;;;;;;;45.43;24.10;;;;;;;;;;4983129;28;20509;-81
2023/12/03 12:15:18;;;;;;;42.03;24.90;;;;;;;;;;4980477;28;20484;-83
2023/12/03 12:17:44;;;;;;;36.73;21.40;;;;;;;;;;4982166;28;20469;-83
2023/12/03 12:20:13;;;;;;;40.93;22.00;;;;;;;;;;4982994;28;20893;-81
2023/12/03 12:22:39;;;;;;;30.70;20.23;;;;;;;;;;4982433;28;20579;-83
2023/12/03 12:25:07;;;;;;;36.23;21.30;;;;;;;;;;4978810;28;20460;-82
2023/12/03 12:27:34;;;;;;;35.17;20.67;;;;;;;;;;4978751;28;20472;-82
2023/12/03 12:30:00;;;;;;;33.47;20.50;;;;;;;;;;4984851;28;20572;-82
2023/12/03 12:32:27;;;;;;;28.60;19.37;;;;;;;;;;4983315;28;20460;-83
2023/12/03 12:34:53;;;;;;;33.13;19.90;;;;;;;;;;4983820;28;20571;-82
2023/12/03 12:37:22;;;;;;;25.80;19.37;;;;;;;;;;4986731;28;20529;-83
2023/12/03 12:39:49;;;;;;;26.70;18.60;;;;;;;;;;4981227;28;20476;-86
2023/12/03 12:42:24;;;;;;;30.03;18.80;;;;;;;;;;4979646;28;20556;-82
2023/12/03 12:44:50;;;;;;;27.27;17.77;;;;;;;;;;4977180;28;20460;-82
2023/12/03 12:47:17;;;;;;;29.80;19.50;;;;;;;;;;4992233;28;20455;-83
2023/12/03 12:49:51;;;;;;;26.03;18.23;;;;;;;;;;4980805;28;20464;-83
2023/12/03 12:52:17;;;;;;;28.20;19.40;;;;;;;;;;4987463;28;21110;-82
2023/12/03 12:54:46;;;;;;;28.33;18.80;;;;;;;;;;4980541;28;20587;-82
2023/12/03 12:57:13;;;;;;;24.70;17.40;;;;;;;;;;4980245;28;20449;-81
2023/12/03 12:59:39;;;;;;;27.80;18.53;;;;;;;;;;4978922;28;20519;-82
2023/12/03 13:02:05;;;;;;;31.53;19.63;;;;;;;;;;4972860;28;20583;-82
2023/12/03 13:04:32;;;;;;;28.20;18.93;;;;;;;;;;4976778;28;20516;-80
2023/12/03 13:06:58;;;;;;;25.83;18.90;;;;;;;;;;4980744;28;20496;-81
2023/12/03 13:09:25;;;;;;;27.53;18.20;;;;;;;;;;4977167;28;20499;-83
2023/12/03 13:11:52;;;;;;;28.47;18.47;;;;;;;;;;4979120;28;20456;-83
2023/12/03 13:14:19;;;;;;;23.13;17.60;;;;;;;;;;4981954;28;20547;-83
2023/12/03 13:16:45;;;;;;;25.63;19.53;;;;;;;;;;4980982;28;20457;-84
2023/12/03 13:19:12;;;;;;;25.63;16.83;;;;;;;;;;4980184;28;20492;-82
2023/12/03 13:21:38;;;;;;;26.63;16.93;;;;;;;;;;4981376;28;20460;-82
2023/12/03 13:24:05;;;;;;;26.63;16.40;;;;;;;;;;4977822;28;20509;-84
2023/12/03 13:26:31;;;;;;;23.33;16.27;;;;;;;;;;4981237;28;20457;-84
2023/12/03 13:28:59;;;;;;;28.40;18.87;;;;;;;;;;4985152;28;20835;-85
2023/12/03 13:31:26;;;;;;;28.33;17.03;;;;;;;;;;4984068;28;20487;-83
2023/12/03 13:33:52;;;;;;;26.20;16.93;;;;;;;;;;4989256;28;20496;-81
2023/12/03 13:36:19;;;;;;;22.13;16.90;;;;;;;;;;4978392;28;20500;-81
2023/12/03 13:38:45;;;;;;;24.37;15.97;;;;;;;;;;4979758;28;20448;-82
2023/12/03 13:41:11;;;;;;;24.17;16.00;;;;;;;;;;4981646;28;20615;-82
2023/12/03 13:43:38;;;;;;;28.60;18.30;;;;;;;;;;4980141;28;20456;-82
2023/12/03 13:46:07;;;;;;;27.00;17.80;;;;;;;;;;4979825;28;20981;-83
2023/12/03 13:48:33;;;;;;;33.47;17.23;;;;;;;;;;4981448;28;20836;-81
2023/12/03 13:51:00;;;;;;;24.63;17.93;;;;;;;;;;4980769;28;20476;-83
2023/12/03 13:53:26;;;;;;;26.30;17.60;;;;;;;;;;4977477;28;20492;-83
2023/12/03 13:55:52;;;;;;;27.40;17.20;;;;;;;;;;4974373;28;20497;-83
2023/12/03 13:58:19;;;;;;;26.20;18.00;;;;;;;;;;4980234;28;20464;-82
2023/12/03 14:00:45;;;;;;;24.10;16.73;;;;;;;;;;4980841;28;20476;-81
2023/12/03 14:03:13;;;;;;;27.97;17.03;;;;;;;;;;4976449;28;20564;-81
2023/12/03 14:05:40;;;;;;;26.33;16.77;;;;;;;;;;4980029;28;20496;-82
2023/12/03 14:08:07;;;;;;;28.73;16.97;;;;;;;;;;4978869;28;20460;-81
2023/12/03 14:10:34;;;;;;;26.40;16.70;;;;;;;;;;4979722;28;20505;-81
2023/12/03 14:13:00;;;;;;;28.97;18.17;;;;;;;;;;4980353;28;20523;-79
2023/12/03 14:15:27;;;;;;;22.17;16.83;;;;;;;;;;4980887;28;20560;-84